sensor_id;sensor_type;location;lat;lon;timestamp;pressure;altitude;pressure_sealevel;temperature;humidity
75157;BME280;63736;50.076;8.198;2023-06-19T00:01:07;98956.25;;;24.07;42.82
75157;BME280;63736;50.076;8.198;2023-06-19T00:03:33;98958.03;;;24.14;43.20
75157;BME280;63736;50.076;8.198;2023-06-19T00:05:58;98957.69;;;24.10;42.83
75157;BME280;63736;50.076;8.198;2023-06-19T00:08:23;98957.56;;;24.05;43.59
75157;BME280;63736;50.076;8.198;2023-06-19T00:10:48;98943.88;;;23.93;43.14
75157;BME280;63736;50.076;8.198;2023-06-19T00:13:14;98962.13;;;23.92;42.77
75157;BME280;63736;50.076;8.198;2023-06-19T00:15:40;98961.53;;;23.90;42.77
75157;BME280;63736;50.076;8.198;2023-06-19T00:18:05;98961.13;;;23.87;43.46
75157;BME280;63736;50.076;8.198;2023-06-19T00:20:32;98970.91;;;23.76;43.47
75157;BME280;63736;50.076;8.198;2023-06-19T00:22:57;98959.09;;;23.64;43.29
75157;BME280;63736;50.076;8.198;2023-06-19T00:25:22;98964.25;;;23.53;43.38
75157;BME280;63736;50.076;8.198;2023-06-19T00:27:47;98961.00;;;23.45;44.57
75157;BME280;63736;50.076;8.198;2023-06-19T00:30:13;98970.28;;;23.37;44.56
75157;BME280;63736;50.076;8.198;2023-06-19T00:32:38;98970.59;;;23.29;44.58
75157;BME280;63736;50.076;8.198;2023-06-19T00:35:11;98963.16;;;23.17;45.09
75157;BME280;63736;50.076;8.198;2023-06-19T00:37:36;98963.19;;;23.10;45.36
75157;BME280;63736;50.076;8.198;2023-06-19T00:40:01;98961.38;;;23.04;46.14
75157;BME280;63736;50.076;8.198;2023-06-19T00:42:27;98957.50;;;22.93;46.20
75157;BME280;63736;50.076;8.198;2023-06-19T00:44:52;98961.09;;;22.87;47.41
75157;BME280;63736;50.076;8.198;2023-06-19T00:47:17;98965.03;;;22.91;48.06
75157;BME280;63736;50.076;8.198;2023-06-19T00:49:43;98952.22;;;22.99;48.10
75157;BME280;63736;50.076;8.198;2023-06-19T00:52:08;98959.25;;;23.06;47.70
75157;BME280;63736;50.076;8.198;2023-06-19T00:54:33;98953.97;;;23.12;47.11
75157;BME280;63736;50.076;8.198;2023-06-19T00:56:59;98942.69;;;23.08;47.22
75157;BME280;63736;50.076;8.198;2023-06-19T00:59:25;98939.38;;;23.06;47.17
75157;BME280;63736;50.076;8.198;2023-06-19T01:01:51;98944.44;;;23.02;46.58
75157;BME280;63736;50.076;8.198;2023-06-19T01:04:16;98947.97;;;23.03;47.38
75157;BME280;63736;50.076;8.198;2023-06-19T01:06:51;98944.03;;;22.99;46.82
75157;BME280;63736;50.076;8.198;2023-06-19T01:09:19;98956.06;;;22.91;46.90
75157;BME280;63736;50.076;8.198;2023-06-19T01:11:52;98953.16;;;22.86;46.68
75157;BME280;63736;50.076;8.198;2023-06-19T01:14:26;98957.00;;;22.78;46.77
75157;BME280;63736;50.076;8.198;2023-06-19T01:16:53;98965.22;;;22.71;47.85
75157;BME280;63736;50.076;8.198;2023-06-19T01:19:20;98954.41;;;22.65;47.82
75157;BME280;63736;50.076;8.198;2023-06-19T01:21:46;98956.50;;;22.63;48.48
75157;BME280;63736;50.076;8.198;2023-06-19T01:24:12;98962.41;;;22.59;47.91
75157;BME280;63736;50.076;8.198;2023-06-19T01:26:37;98959.06;;;22.57;47.51
75157;BME280;63736;50.076;8.198;2023-06-19T01:29:03;98947.75;;;22.60;48.08
75157;BME280;63736;50.076;8.198;2023-06-19T01:31:37;98947.50;;;22.62;47.63
75157;BME280;63736;50.076;8.198;2023-06-19T01:34:06;98958.63;;;22.60;47.22
75157;BME280;63736;50.076;8.198;2023-06-19T01:36:33;98955.50;;;22.57;47.20
75157;BME280;63736;50.076;8.198;2023-06-19T01:38:59;98966.84;;;22.54;47.77
75157;BME280;63736;50.076;8.198;2023-06-19T01:41:25;98971.91;;;22.50;47.49
75157;BME280;63736;50.076;8.198;2023-06-19T01:43:51;98979.78;;;22.58;48.27
75157;BME280;63736;50.076;8.198;2023-06-19T01:46:16;98981.63;;;22.65;48.36
75157;BME280;63736;50.076;8.198;2023-06-19T01:48:42;98985.16;;;22.65;47.85
75157;BME280;63736;50.076;8.198;2023-06-19T01:51:07;98990.38;;;22.67;47.81
75157;BME280;63736;50.076;8.198;2023-06-19T01:53:32;98989.56;;;22.66;47.91
75157;BME280;63736;50.076;8.198;2023-06-19T01:56:01;98989.13;;;22.69;48.90
75157;BME280;63736;50.076;8.198;2023-06-19T01:58:26;98987.41;;;22.75;48.75
75157;BME280;63736;50.076;8.198;2023-06-19T02:00:52;98996.56;;;22.81;48.32
75157;BME280;63736;50.076;8.198;2023-06-19T02:03:17;98990.06;;;22.82;47.88
75157;BME280;63736;50.076;8.198;2023-06-19T02:05:42;98981.91;;;22.82;47.73
75157;BME280;63736;50.076;8.198;2023-06-19T02:08:08;98987.63;;;22.73;47.43
75157;BME280;63736;50.076;8.198;2023-06-19T02:10:33;98988.13;;;22.64;47.67
75157;BME280;63736;50.076;8.198;2023-06-19T02:12:59;98997.56;;;22.61;48.64
75157;BME280;63736;50.076;8.198;2023-06-19T02:15:24;99005.50;;;22.63;49.47
75157;BME280;63736;50.076;8.198;2023-06-19T02:17:50;99008.63;;;22.66;49.48
75157;BME280;63736;50.076;8.198;2023-06-19T02:20:20;99007.81;;;22.66;49.52
75157;BME280;63736;50.076;8.198;2023-06-19T02:22:46;99015.34;;;22.64;50.40
75157;BME280;63736;50.076;8.198;2023-06-19T02:25:11;99011.16;;;22.61;50.25
75157;BME280;63736;50.076;8.198;2023-06-19T02:27:36;99016.16;;;22.64;51.26
75157;BME280;63736;50.076;8.198;2023-06-19T02:30:02;99002.56;;;22.64;50.92
75157;BME280;63736;50.076;8.198;2023-06-19T02:32:28;99011.75;;;22.70;51.48
75157;BME280;63736;50.076;8.198;2023-06-19T02:34:53;99010.25;;;22.74;51.08
75157;BME280;63736;50.076;8.198;2023-06-19T02:37:18;99021.53;;;22.77;51.79
75157;BME280;63736;50.076;8.198;2023-06-19T02:39:44;99022.97;;;22.80;52.06
75157;BME280;63736;50.076;8.198;2023-06-19T02:42:09;99020.25;;;22.80;52.55
75157;BME280;63736;50.076;8.198;2023-06-19T02:44:34;99022.34;;;22.78;52.11
75157;BME280;63736;50.076;8.198;2023-06-19T02:46:59;99031.56;;;22.77;52.29
75157;BME280;63736;50.076;8.198;2023-06-19T02:49:25;99024.91;;;22.73;52.29
75157;BME280;63736;50.076;8.198;2023-06-19T02:51:50;99031.84;;;22.69;53.57
75157;BME280;63736;50.076;8.198;2023-06-19T02:54:15;99028.31;;;22.68;53.72
75157;BME280;63736;50.076;8.198;2023-06-19T02:56:41;99039.38;;;22.67;54.08
75157;BME280;63736;50.076;8.198;2023-06-19T02:59:06;99033.13;;;22.66;54.43
75157;BME280;63736;50.076;8.198;2023-06-19T03:01:31;99034.84;;;22.60;53.89
75157;BME280;63736;50.076;8.198;2023-06-19T03:03:56;99034.03;;;22.53;54.36
75157;BME280;63736;50.076;8.198;2023-06-19T03:06:22;99035.53;;;22.49;55.99
75157;BME280;63736;50.076;8.198;2023-06-19T03:08:47;99031.38;;;22.47;55.91
75157;BME280;63736;50.076;8.198;2023-06-19T03:11:12;99034.09;;;22.47;56.15
75157;BME280;63736;50.076;8.198;2023-06-19T03:13:46;99049.16;;;22.49;57.83
75157;BME280;63736;50.076;8.198;2023-06-19T03:16:12;99054.38;;;22.51;58.17
75157;BME280;63736;50.076;8.198;2023-06-19T03:18:38;99045.59;;;22.49;57.79
75157;BME280;63736;50.076;8.198;2023-06-19T03:21:03;99049.16;;;22.49;57.17
75157;BME280;63736;50.076;8.198;2023-06-19T03:23:28;99049.78;;;22.51;58.89
75157;BME280;63736;50.076;8.198;2023-06-19T03:25:53;99050.81;;;22.50;58.34
75157;BME280;63736;50.076;8.198;2023-06-19T03:28:19;99047.69;;;22.47;57.99
75157;BME280;63736;50.076;8.198;2023-06-19T03:30:44;99050.00;;;22.43;58.04
75157;BME280;63736;50.076;8.198;2023-06-19T03:33:09;99064.47;;;22.43;59.74
75157;BME280;63736;50.076;8.198;2023-06-19T03:35:34;99066.97;;;22.45;59.43
75157;BME280;63736;50.076;8.198;2023-06-19T03:38:00;99066.13;;;22.44;58.80
75157;BME280;63736;50.076;8.198;2023-06-19T03:40:25;99058.41;;;22.41;58.60
75157;BME280;63736;50.076;8.198;2023-06-19T03:42:50;99062.78;;;22.42;59.97
75157;BME280;63736;50.076;8.198;2023-06-19T03:45:16;99069.47;;;22.47;61.41
75157;BME280;63736;50.076;8.198;2023-06-19T03:47:41;99065.25;;;22.51;60.68
75157;BME280;63736;50.076;8.198;2023-06-19T03:50:07;99083.25;;;22.52;60.02
75157;BME280;63736;50.076;8.198;2023-06-19T03:52:35;99080.94;;;22.55;62.41
75157;BME280;63736;50.076;8.198;2023-06-19T03:55:01;99085.16;;;22.51;61.91
75157;BME280;63736;50.076;8.198;2023-06-19T03:57:27;99082.91;;;22.41;61.60
75157;BME280;63736;50.076;8.198;2023-06-19T03:59:52;99086.03;;;22.32;63.47
75157;BME280;63736;50.076;8.198;2023-06-19T04:02:19;99098.03;;;22.24;64.88
75157;BME280;63736;50.076;8.198;2023-06-19T04:04:44;99108.72;;;22.19;66.18
75157;BME280;63736;50.076;8.198;2023-06-19T04:07:09;99099.94;;;22.10;67.24
75157;BME280;63736;50.076;8.198;2023-06-19T04:09:35;99108.13;;;22.03;66.01
75157;BME280;63736;50.076;8.198;2023-06-19T04:12:00;99111.28;;;21.93;67.48
75157;BME280;63736;50.076;8.198;2023-06-19T04:14:25;99117.56;;;21.87;67.82
75157;BME280;63736;50.076;8.198;2023-06-19T04:16:50;99114.47;;;21.84;67.22
75157;BME280;63736;50.076;8.198;2023-06-19T04:19:16;99125.53;;;21.82;66.86
75157;BME280;63736;50.076;8.198;2023-06-19T04:21:41;99126.38;;;21.83;68.54
75157;BME280;63736;50.076;8.198;2023-06-19T04:24:06;99135.16;;;21.85;67.70
75157;BME280;63736;50.076;8.198;2023-06-19T04:26:34;99140.78;;;21.90;67.03
75157;BME280;63736;50.076;8.198;2023-06-19T04:28:59;99148.94;;;22.03;66.56
75157;BME280;63736;50.076;8.198;2023-06-19T04:31:26;99138.84;;;22.17;66.25
75157;BME280;63736;50.076;8.198;2023-06-19T04:33:51;99129.78;;;22.30;68.01
75157;BME280;63736;50.076;8.198;2023-06-19T04:36:17;99133.56;;;22.42;66.60
75157;BME280;63736;50.076;8.198;2023-06-19T04:38:42;99131.78;;;22.61;67.20
75157;BME280;63736;50.076;8.198;2023-06-19T04:41:09;99137.59;;;23.04;64.93
75157;BME280;63736;50.076;8.198;2023-06-19T04:43:34;99139.59;;;23.72;61.71
75157;BME280;63736;50.076;8.198;2023-06-19T04:45:59;99142.91;;;24.55;59.24
75157;BME280;63736;50.076;8.198;2023-06-19T04:48:25;99136.91;;;25.38;55.63
75157;BME280;63736;50.076;8.198;2023-06-19T04:50:52;99137.63;;;26.16;52.25
75157;BME280;63736;50.076;8.198;2023-06-19T04:53:17;99140.56;;;26.79;49.28
75157;BME280;63736;50.076;8.198;2023-06-19T04:55:42;99131.53;;;26.96;47.78
75157;BME280;63736;50.076;8.198;2023-06-19T04:58:08;99129.91;;;26.95;47.11
75157;BME280;63736;50.076;8.198;2023-06-19T05:00:33;99126.31;;;26.94;46.61
75157;BME280;63736;50.076;8.198;2023-06-19T05:02:59;99134.78;;;26.93;46.61
75157;BME280;63736;50.076;8.198;2023-06-19T05:05:27;99126.88;;;26.79;47.07
75157;BME280;63736;50.076;8.198;2023-06-19T05:07:52;99137.31;;;26.53;47.70
75157;BME280;63736;50.076;8.198;2023-06-19T05:10:18;99125.34;;;26.31;48.18
75157;BME280;63736;50.076;8.198;2023-06-19T05:12:44;99128.63;;;26.04;49.34
75157;BME280;63736;50.076;8.198;2023-06-19T05:15:09;99130.50;;;25.80;50.22
75157;BME280;63736;50.076;8.198;2023-06-19T05:17:34;99128.34;;;25.58;51.14
75157;BME280;63736;50.076;8.198;2023-06-19T05:20:00;99122.19;;;25.75;52.34
75157;BME280;63736;50.076;8.198;2023-06-19T05:22:25;99124.75;;;26.29;51.06
75157;BME280;63736;50.076;8.198;2023-06-19T05:24:51;99127.72;;;26.68;49.90
75157;BME280;63736;50.076;8.198;2023-06-19T05:27:17;99133.81;;;27.16;48.53
75157;BME280;63736;50.076;8.198;2023-06-19T05:29:42;99127.94;;;27.58;47.39
75157;BME280;63736;50.076;8.198;2023-06-19T05:32:07;99130.41;;;27.94;45.66
75157;BME280;63736;50.076;8.198;2023-06-19T05:34:32;99134.41;;;28.25;44.78
75157;BME280;63736;50.076;8.198;2023-06-19T05:36:58;99137.16;;;28.47;44.15
75157;BME280;63736;50.076;8.198;2023-06-19T05:39:25;99144.66;;;28.74;43.77
75157;BME280;63736;50.076;8.198;2023-06-19T05:41:51;99141.25;;;29.22;43.12
75157;BME280;63736;50.076;8.198;2023-06-19T05:44:16;99146.13;;;29.79;41.69
75157;BME280;63736;50.076;8.198;2023-06-19T05:46:42;99151.78;;;30.00;40.71
75157;BME280;63736;50.076;8.198;2023-06-19T05:49:07;99154.13;;;30.29;40.11
75157;BME280;63736;50.076;8.198;2023-06-19T05:51:33;99155.31;;;30.43;39.82
75157;BME280;63736;50.076;8.198;2023-06-19T05:53:58;99167.84;;;30.82;39.59
75157;BME280;63736;50.076;8.198;2023-06-19T05:56:28;99171.00;;;31.06;38.88
75157;BME280;63736;50.076;8.198;2023-06-19T05:58:54;99176.53;;;31.32;38.25
75157;BME280;63736;50.076;8.198;2023-06-19T06:01:19;99177.94;;;31.55;37.76
75157;BME280;63736;50.076;8.198;2023-06-19T06:03:44;99179.84;;;31.44;37.53
75157;BME280;63736;50.076;8.198;2023-06-19T06:06:10;99190.63;;;31.25;37.79
75157;BME280;63736;50.076;8.198;2023-06-19T06:08:35;99182.78;;;30.91;37.99
75157;BME280;63736;50.076;8.198;2023-06-19T06:11:01;99191.03;;;30.23;39.33
75157;BME280;63736;50.076;8.198;2023-06-19T06:13:26;99190.59;;;29.98;40.23
75157;BME280;63736;50.076;8.198;2023-06-19T06:15:51;99195.63;;;29.74;40.43
75157;BME280;63736;50.076;8.198;2023-06-19T06:18:16;99188.50;;;29.73;40.46
75157;BME280;63736;50.076;8.198;2023-06-19T06:20:42;99200.66;;;29.82;41.13
75157;BME280;63736;50.076;8.198;2023-06-19T06:23:07;99199.25;;;30.12;40.24
75157;BME280;63736;50.076;8.198;2023-06-19T06:25:32;99200.34;;;30.11;39.94
75157;BME280;63736;50.076;8.198;2023-06-19T06:27:57;99195.25;;;29.93;40.06
75157;BME280;63736;50.076;8.198;2023-06-19T06:30:23;99205.16;;;30.42;40.24
75157;BME280;63736;50.076;8.198;2023-06-19T06:32:48;99195.56;;;31.23;38.43
75157;BME280;63736;50.076;8.198;2023-06-19T06:35:15;99185.88;;;32.24;36.85
75157;BME280;63736;50.076;8.198;2023-06-19T06:37:41;99178.31;;;33.10;35.04
75157;BME280;63736;50.076;8.198;2023-06-19T06:40:07;99183.91;;;33.74;33.82
75157;BME280;63736;50.076;8.198;2023-06-19T06:42:36;99192.47;;;34.32;33.06
75157;BME280;63736;50.076;8.198;2023-06-19T06:45:02;99193.59;;;34.79;32.38
75157;BME280;63736;50.076;8.198;2023-06-19T06:47:27;99189.19;;;35.16;31.37
75157;BME280;63736;50.076;8.198;2023-06-19T06:49:53;99191.31;;;35.44;30.96
75157;BME280;63736;50.076;8.198;2023-06-19T06:52:18;99199.81;;;35.66;30.33
75157;BME280;63736;50.076;8.198;2023-06-19T06:54:44;99199.81;;;35.66;30.36
75157;BME280;63736;50.076;8.198;2023-06-19T06:57:10;99201.84;;;35.61;30.54
75157;BME280;63736;50.076;8.198;2023-06-19T06:59:35;99194.78;;;36.01;30.13
75157;BME280;63736;50.076;8.198;2023-06-19T07:02:00;99203.25;;;36.52;29.45
75157;BME280;63736;50.076;8.198;2023-06-19T07:04:25;99203.25;;;36.66;29.16
75157;BME280;63736;50.076;8.198;2023-06-19T07:06:51;99197.56;;;36.29;29.05
75157;BME280;63736;50.076;8.198;2023-06-19T07:09:18;99202.06;;;35.64;30.02
75157;BME280;63736;50.076;8.198;2023-06-19T07:11:43;99213.38;;;35.35;30.54
75157;BME280;63736;50.076;8.198;2023-06-19T07:14:08;99211.25;;;35.98;30.17
75157;BME280;63736;50.076;8.198;2023-06-19T07:16:33;99215.66;;;36.46;29.44
75157;BME280;63736;50.076;8.198;2023-06-19T07:18:59;99216.34;;;36.24;29.21
75157;BME280;63736;50.076;8.198;2023-06-19T07:21:27;99216.59;;;35.94;29.21
75157;BME280;63736;50.076;8.198;2023-06-19T07:23:52;99217.63;;;35.79;29.99
75157;BME280;63736;50.076;8.198;2023-06-19T07:26:18;99217.63;;;35.98;29.77
75157;BME280;63736;50.076;8.198;2023-06-19T07:28:43;99227.03;;;36.16;29.02
75157;BME280;63736;50.076;8.198;2023-06-19T07:31:08;99226.13;;;36.35;29.14
75157;BME280;63736;50.076;8.198;2023-06-19T07:33:33;99227.28;;;36.76;28.67
75157;BME280;63736;50.076;8.198;2023-06-19T07:36:00;99223.47;;;37.22;27.71
75157;BME280;63736;50.076;8.198;2023-06-19T07:38:27;99227.06;;;38.05;27.20
75157;BME280;63736;50.076;8.198;2023-06-19T07:40:53;99217.53;;;38.77;26.18
75157;BME280;63736;50.076;8.198;2023-06-19T07:43:18;99222.69;;;39.45;25.48
75157;BME280;63736;50.076;8.198;2023-06-19T07:45:43;99225.09;;;39.91;24.89
75157;BME280;63736;50.076;8.198;2023-06-19T07:48:08;99233.59;;;40.03;24.90
75157;BME280;63736;50.076;8.198;2023-06-19T07:50:34;99234.19;;;39.79;24.81
75157;BME280;63736;50.076;8.198;2023-06-19T07:52:59;99239.78;;;39.44;25.09
75157;BME280;63736;50.076;8.198;2023-06-19T07:55:24;99234.00;;;39.84;24.65
75157;BME280;63736;50.076;8.198;2023-06-19T07:57:49;99241.09;;;40.38;24.09
75157;BME280;63736;50.076;8.198;2023-06-19T08:00:15;99257.06;;;39.63;24.39
75157;BME280;63736;50.076;8.198;2023-06-19T08:02:40;99239.16;;;38.00;26.03
75157;BME280;63736;50.076;8.198;2023-06-19T08:05:07;99247.03;;;36.74;27.81
75157;BME280;63736;50.076;8.198;2023-06-19T08:07:33;99241.06;;;35.92;28.48
75157;BME280;63736;50.076;8.198;2023-06-19T08:09:58;99238.81;;;35.42;29.46
75157;BME280;63736;50.076;8.198;2023-06-19T08:12:23;99239.91;;;35.03;29.58
75157;BME280;63736;50.076;8.198;2023-06-19T08:14:48;99237.59;;;34.67;30.23
75157;BME280;63736;50.076;8.198;2023-06-19T08:17:14;99247.22;;;35.56;29.43
75157;BME280;63736;50.076;8.198;2023-06-19T08:19:39;99243.38;;;35.52;29.26
75157;BME280;63736;50.076;8.198;2023-06-19T08:22:05;99258.09;;;35.14;30.20
75157;BME280;63736;50.076;8.198;2023-06-19T08:24:30;99259.72;;;35.15;30.29
75157;BME280;63736;50.076;8.198;2023-06-19T08:26:56;99248.38;;;35.88;29.05
75157;BME280;63736;50.076;8.198;2023-06-19T08:29:21;99246.59;;;35.59;29.33
75157;BME280;63736;50.076;8.198;2023-06-19T08:31:47;99260.50;;;35.21;30.05
75157;BME280;63736;50.076;8.198;2023-06-19T08:34:13;99257.09;;;35.24;30.35
75157;BME280;63736;50.076;8.198;2023-06-19T08:36:38;99244.72;;;36.07;28.96
75157;BME280;63736;50.076;8.198;2023-06-19T08:39:03;99252.19;;;36.95;27.95
75157;BME280;63736;50.076;8.198;2023-06-19T08:41:28;99257.84;;;37.54;26.66
75157;BME280;63736;50.076;8.198;2023-06-19T08:43:54;99254.56;;;38.60;26.11
75157;BME280;63736;50.076;8.198;2023-06-19T08:46:20;99263.97;;;38.33;25.55
75157;BME280;63736;50.076;8.198;2023-06-19T08:48:45;99256.69;;;37.78;26.28
75157;BME280;63736;50.076;8.198;2023-06-19T08:51:11;99253.66;;;38.11;26.24
75157;BME280;63736;50.076;8.198;2023-06-19T08:53:45;99260.84;;;37.80;26.21
75157;BME280;63736;50.076;8.198;2023-06-19T08:56:10;99255.88;;;38.00;26.35
75157;BME280;63736;50.076;8.198;2023-06-19T08:58:36;99260.16;;;38.29;26.05
75157;BME280;63736;50.076;8.198;2023-06-19T09:01:02;99259.59;;;38.98;25.16
75157;BME280;63736;50.076;8.198;2023-06-19T09:03:27;99260.66;;;39.29;24.56
75157;BME280;63736;50.076;8.198;2023-06-19T09:05:53;99258.47;;;39.17;24.56
75157;BME280;63736;50.076;8.198;2023-06-19T09:08:19;99253.75;;;39.44;24.47
75157;BME280;63736;50.076;8.198;2023-06-19T09:11:04;99257.47;;;39.13;24.52
75157;BME280;63736;50.076;8.198;2023-06-19T09:13:31;99264.84;;;38.82;24.91
75157;BME280;63736;50.076;8.198;2023-06-19T09:18:23;99257.53;;;39.39;24.17
75157;BME280;63736;50.076;8.198;2023-06-19T09:20:52;99261.16;;;39.75;24.10
75157;BME280;63736;50.076;8.198;2023-06-19T09:23:19;99272.81;;;39.86;23.76
75157;BME280;63736;50.076;8.198;2023-06-19T09:25:52;99263.47;;;40.38;22.99
75157;BME280;63736;50.076;8.198;2023-06-19T09:28:22;99258.84;;;40.80;22.68
75157;BME280;63736;50.076;8.198;2023-06-19T09:30:58;99257.09;;;41.27;22.15
75157;BME280;63736;50.076;8.198;2023-06-19T09:33:26;99245.31;;;41.55;22.18
75157;BME280;63736;50.076;8.198;2023-06-19T09:35:53;99250.16;;;40.73;23.01
75157;BME280;63736;50.076;8.198;2023-06-19T09:38:19;99246.19;;;40.74;23.02
75157;BME280;63736;50.076;8.198;2023-06-19T09:40:47;99252.72;;;40.87;22.64
75157;BME280;63736;50.076;8.198;2023-06-19T09:43:17;99246.28;;;40.09;23.58
75157;BME280;63736;50.076;8.198;2023-06-19T09:45:47;99247.19;;;40.40;23.28
75157;BME280;63736;50.076;8.198;2023-06-19T09:48:15;99251.84;;;40.66;22.83
75157;BME280;63736;50.076;8.198;2023-06-19T09:50:44;99256.00;;;40.59;22.03
75157;BME280;63736;50.076;8.198;2023-06-19T09:53:10;99254.50;;;40.06;23.13
75157;BME280;63736;50.076;8.198;2023-06-19T09:55:36;99249.66;;;40.33;22.38
75157;BME280;63736;50.076;8.198;2023-06-19T09:58:02;99247.34;;;40.73;22.24
75157;BME280;63736;50.076;8.198;2023-06-19T10:00:30;99253.59;;;40.40;22.50
75157;BME280;63736;50.076;8.198;2023-06-19T10:02:57;99248.94;;;39.09;23.45
75157;BME280;63736;50.076;8.198;2023-06-19T10:05:30;99245.84;;;37.90;24.77
75157;BME280;63736;50.076;8.198;2023-06-19T10:07:56;99253.31;;;37.08;26.03
75157;BME280;63736;50.076;8.198;2023-06-19T10:10:26;99244.06;;;36.70;26.21
75157;BME280;63736;50.076;8.198;2023-06-19T10:12:55;99260.44;;;36.58;25.81
75157;BME280;63736;50.076;8.198;2023-06-19T10:15:23;99257.78;;;36.67;26.48
75157;BME280;63736;50.076;8.198;2023-06-19T10:17:51;99258.41;;;36.64;25.81
75157;BME280;63736;50.076;8.198;2023-06-19T10:20:26;99252.03;;;36.16;25.93
75157;BME280;63736;50.076;8.198;2023-06-19T10:23:06;99261.53;;;35.63;26.76
75157;BME280;63736;50.076;8.198;2023-06-19T10:25:34;99260.41;;;35.26;26.81
75157;BME280;63736;50.076;8.198;2023-06-19T10:28:00;99258.13;;;34.90;27.13
75157;BME280;63736;50.076;8.198;2023-06-19T10:30:26;99255.88;;;34.68;27.97
75157;BME280;63736;50.076;8.198;2023-06-19T10:32:52;99264.75;;;34.46;28.66
75157;BME280;63736;50.076;8.198;2023-06-19T10:35:18;99259.09;;;33.97;28.41
75157;BME280;63736;50.076;8.198;2023-06-19T10:37:46;99257.28;;;33.42;29.55
75157;BME280;63736;50.076;8.198;2023-06-19T10:40:13;99249.09;;;33.22;29.61
75157;BME280;63736;50.076;8.198;2023-06-19T10:42:39;99255.84;;;32.95;30.17
75157;BME280;63736;50.076;8.198;2023-06-19T10:45:05;99253.47;;;32.73;30.31
75157;BME280;63736;50.076;8.198;2023-06-19T10:47:32;99243.84;;;32.50;31.29
75157;BME280;63736;50.076;8.198;2023-06-19T10:49:57;99248.03;;;32.37;31.31
75157;BME280;63736;50.076;8.198;2023-06-19T10:52:23;99246.63;;;32.39;31.43
75157;BME280;63736;50.076;8.198;2023-06-19T10:54:56;99252.16;;;32.34;32.07
75157;BME280;63736;50.076;8.198;2023-06-19T10:57:29;99254.94;;;32.39;32.33
75157;BME280;63736;50.076;8.198;2023-06-19T10:59:54;99252.16;;;32.44;31.91
75157;BME280;63736;50.076;8.198;2023-06-19T11:02:21;99249.38;;;32.44;32.23
75157;BME280;63736;50.076;8.198;2023-06-19T11:04:47;99242.75;;;32.51;31.37
75157;BME280;63736;50.076;8.198;2023-06-19T11:07:12;99246.84;;;32.64;31.26
75157;BME280;63736;50.076;8.198;2023-06-19T11:09:37;99235.19;;;32.77;31.16
75157;BME280;63736;50.076;8.198;2023-06-19T11:12:03;99234.84;;;32.94;31.31
75157;BME280;63736;50.076;8.198;2023-06-19T11:14:29;99231.44;;;33.13;30.73
75157;BME280;63736;50.076;8.198;2023-06-19T11:16:55;99234.94;;;33.29;30.38
75157;BME280;63736;50.076;8.198;2023-06-19T11:19:21;99229.59;;;33.42;30.34
75157;BME280;63736;50.076;8.198;2023-06-19T11:21:52;99229.41;;;33.63;30.15
75157;BME280;63736;50.076;8.198;2023-06-19T11:24:18;99227.63;;;33.83;29.81
75157;BME280;63736;50.076;8.198;2023-06-19T11:26:46;99228.66;;;33.92;29.83
75157;BME280;63736;50.076;8.198;2023-06-19T11:29:20;99234.22;;;33.92;29.23
75157;BME280;63736;50.076;8.198;2023-06-19T11:31:47;99228.63;;;33.97;28.90
75157;BME280;63736;50.076;8.198;2023-06-19T11:34:13;99227.78;;;33.97;29.10
75157;BME280;63736;50.076;8.198;2023-06-19T11:36:40;99237.75;;;33.98;28.37
75157;BME280;63736;50.076;8.198;2023-06-19T11:39:10;99231.75;;;33.85;28.98
75157;BME280;63736;50.076;8.198;2023-06-19T11:41:36;99229.94;;;33.70;28.42
75157;BME280;63736;50.076;8.198;2023-06-19T11:44:07;99232.47;;;33.62;28.34
75157;BME280;63736;50.076;8.198;2023-06-19T11:46:33;99229.97;;;33.65;28.51
75157;BME280;63736;50.076;8.198;2023-06-19T11:49:15;99226.00;;;33.82;28.94
75157;BME280;63736;50.076;8.198;2023-06-19T11:51:44;99223.13;;;33.92;28.44
75157;BME280;63736;50.076;8.198;2023-06-19T11:54:10;99225.34;;;33.90;28.77
75157;BME280;63736;50.076;8.198;2023-06-19T11:56:37;99226.41;;;33.94;28.33
75157;BME280;63736;50.076;8.198;2023-06-19T11:59:03;99221.94;;;33.98;28.16
75157;BME280;63736;50.076;8.198;2023-06-19T12:01:32;99212.91;;;33.87;27.81
75157;BME280;63736;50.076;8.198;2023-06-19T12:03:58;99215.47;;;33.73;27.81
75157;BME280;63736;50.076;8.198;2023-06-19T12:06:24;99220.47;;;33.76;28.46
75157;BME280;63736;50.076;8.198;2023-06-19T12:08:50;99216.34;;;33.74;28.35
75157;BME280;63736;50.076;8.198;2023-06-19T12:11:15;99206.09;;;33.69;27.87
75157;BME280;63736;50.076;8.198;2023-06-19T12:13:40;99211.09;;;33.72;28.12
75157;BME280;63736;50.076;8.198;2023-06-19T12:16:07;99212.09;;;33.87;27.71
75157;BME280;63736;50.076;8.198;2023-06-19T12:18:32;99206.50;;;33.92;27.68
75157;BME280;63736;50.076;8.198;2023-06-19T12:20:57;99201.06;;;33.82;28.15
75157;BME280;63736;50.076;8.198;2023-06-19T12:23:23;99198.28;;;33.82;28.33
75157;BME280;63736;50.076;8.198;2023-06-19T12:25:48;99199.66;;;33.79;28.26
75157;BME280;63736;50.076;8.198;2023-06-19T12:28:13;99193.84;;;33.81;27.96
75157;BME280;63736;50.076;8.198;2023-06-19T12:30:43;99191.34;;;33.79;28.25
75157;BME280;63736;50.076;8.198;2023-06-19T12:33:09;99197.34;;;33.91;28.36
75157;BME280;63736;50.076;8.198;2023-06-19T12:35:35;99204.19;;;33.99;28.00
75157;BME280;63736;50.076;8.198;2023-06-19T12:38:00;99199.63;;;34.14;27.61
75157;BME280;63736;50.076;8.198;2023-06-19T12:40:25;99198.44;;;34.20;26.98
75157;BME280;63736;50.076;8.198;2023-06-19T12:42:50;99194.22;;;33.98;27.27
75157;BME280;63736;50.076;8.198;2023-06-19T12:45:16;99194.63;;;33.86;27.35
75157;BME280;63736;50.076;8.198;2023-06-19T12:47:41;99195.94;;;33.94;27.49
75157;BME280;63736;50.076;8.198;2023-06-19T12:50:07;99192.00;;;34.00;27.20
75157;BME280;63736;50.076;8.198;2023-06-19T12:52:32;99197.00;;;33.98;27.88
75157;BME280;63736;50.076;8.198;2023-06-19T12:54:57;99191.47;;;33.98;27.83
75157;BME280;63736;50.076;8.198;2023-06-19T12:57:26;99187.16;;;34.11;27.26